sensor_id;sensor_type;location;lat;lon;timestamp;temperature;humidity
14016;DHT22;7083;48.854;9.158;2023-01-10T00:01:33;4.30;99.90
14016;DHT22;7083;48.854;9.158;2023-01-10T00:04:00;4.30;99.90
14016;DHT22;7083;48.854;9.158;2023-01-10T00:06:27;4.30;99.90
14016;DHT22;7083;48.854;9.158;2023-01-10T00:08:54;4.30;99.90
14016;DHT22;7083;48.854;9.158;2023-01-10T00:11:22;4.30;99.90
14016;DHT22;7083;48.854;9.158;2023-01-10T00:14:08;4.30;99.90
14016;DHT22;7083;48.854;9.158;2023-01-10T00:16:35;4.30;99.90
14016;DHT22;7083;48.854;9.158;2023-01-10T00:19:03;4.30;99.90
14016;DHT22;7083;48.854;9.158;2023-01-10T00:21:30;4.30;99.90
14016;DHT22;7083;48.854;9.158;2023-01-10T00:23:57;4.40;99.90
14016;DHT22;7083;48.854;9.158;2023-01-10T00:26:26;4.40;99.90
14016;DHT22;7083;48.854;9.158;2023-01-10T00:28:53;4.40;99.90
14016;DHT22;7083;48.854;9.158;2023-01-10T00:31:21;4.40;99.90
14016;DHT22;7083;48.854;9.158;2023-01-10T00:33:48;4.40;99.90
14016;DHT22;7083;48.854;9.158;2023-01-10T00:36:14;4.40;99.90
14016;DHT22;7083;48.854;9.158;2023-01-10T00:38:41;4.40;99.90
14016;DHT22;7083;48.854;9.158;2023-01-10T00:41:08;4.40;99.90
14016;DHT22;7083;48.854;9.158;2023-01-10T00:43:54;4.40;99.90
14016;DHT22;7083;48.854;9.158;2023-01-10T00:46:25;4.40;99.90
14016;DHT22;7083;48.854;9.158;2023-01-10T00:48:51;4.40;99.90
14016;DHT22;7083;48.854;9.158;2023-01-10T00:51:19;4.40;99.90
14016;DHT22;7083;48.854;9.158;2023-01-10T00:53:46;4.50;99.90
14016;DHT22;7083;48.854;9.158;2023-01-10T00:56:12;4.50;99.90
14016;DHT22;7083;48.854;9.158;2023-01-10T00:58:39;4.50;99.90
14016;DHT22;7083;48.854;9.158;2023-01-10T01:01:06;4.60;99.90
14016;DHT22;7083;48.854;9.158;2023-01-10T01:03:34;4.50;99.90
14016;DHT22;7083;48.854;9.158;2023-01-10T01:06:03;4.50;99.90
14016;DHT22;7083;48.854;9.158;2023-01-10T01:08:30;4.50;99.90
14016;DHT22;7083;48.854;9.158;2023-01-10T01:10:57;4.50;99.90
14016;DHT22;7083;48.854;9.158;2023-01-10T01:13:24;4.60;99.90
14016;DHT22;7083;48.854;9.158;2023-01-10T01:15:51;4.60;99.90
14016;DHT22;7083;48.854;9.158;2023-01-10T01:18:19;4.50;99.90
14016;DHT22;7083;48.854;9.158;2023-01-10T01:20:52;4.50;99.90
14016;DHT22;7083;48.854;9.158;2023-01-10T01:23:21;4.50;99.90
14016;DHT22;7083;48.854;9.158;2023-01-10T01:25:49;4.50;99.90
14016;DHT22;7083;48.854;9.158;2023-01-10T01:28:15;4.50;99.90
14016;DHT22;7083;48.854;9.158;2023-01-10T01:30:42;4.40;99.90
14016;DHT22;7083;48.854;9.158;2023-01-10T01:33:09;4.60;99.90
14016;DHT22;7083;48.854;9.158;2023-01-10T01:35:36;4.40;99.90
14016;DHT22;7083;48.854;9.158;2023-01-10T01:38:04;4.50;99.90
14016;DHT22;7083;48.854;9.158;2023-01-10T01:40:49;4.50;99.90
14016;DHT22;7083;48.854;9.158;2023-01-10T01:43:22;5.60;99.90
14016;DHT22;7083;48.854;9.158;2023-01-10T01:45:52;4.50;99.90
14016;DHT22;7083;48.854;9.158;2023-01-10T01:48:23;4.50;99.90
14016;DHT22;7083;48.854;9.158;2023-01-10T01:51:13;4.60;99.90
14016;DHT22;7083;48.854;9.158;2023-01-10T01:53:46;4.50;99.90
14016;DHT22;7083;48.854;9.158;2023-01-10T01:56:21;4.20;99.90
14016;DHT22;7083;48.854;9.158;2023-01-10T01:59:13;4.50;99.90
14016;DHT22;7083;48.854;9.158;2023-01-10T02:02:00;3.90;99.90
14016;DHT22;7083;48.854;9.158;2023-01-10T02:04:36;5.70;99.90
14016;DHT22;7083;48.854;9.158;2023-01-10T02:07:04;4.30;99.90
14016;DHT22;7083;48.854;9.158;2023-01-10T02:09:39;4.60;99.90
14016;DHT22;7083;48.854;9.158;2023-01-10T02:12:08;4.40;99.90
14016;DHT22;7083;48.854;9.158;2023-01-10T02:14:36;4.40;99.90
14016;DHT22;7083;48.854;9.158;2023-01-10T02:17:08;4.40;99.90
14016;DHT22;7083;48.854;9.158;2023-01-10T02:19:42;4.40;99.90
14016;DHT22;7083;48.854;9.158;2023-01-10T02:22:44;4.40;99.90
14016;DHT22;7083;48.854;9.158;2023-01-10T02:25:43;4.40;99.90
14016;DHT22;7083;48.854;9.158;2023-01-10T02:28:46;6.40;99.90
14016;DHT22;7083;48.854;9.158;2023-01-10T02:31:49;4.40;99.90
14016;DHT22;7083;48.854;9.158;2023-01-10T02:34:19;4.40;99.90
14016;DHT22;7083;48.854;9.158;2023-01-10T02:36:55;4.30;99.90
14016;DHT22;7083;48.854;9.158;2023-01-10T02:39:30;4.30;99.90
14016;DHT22;7083;48.854;9.158;2023-01-10T02:42:03;4.30;99.90
14016;DHT22;7083;48.854;9.158;2023-01-10T02:44:35;4.30;99.90
14016;DHT22;7083;48.854;9.158;2023-01-10T02:47:20;4.30;99.90
14016;DHT22;7083;48.854;9.158;2023-01-10T02:49:49;4.20;99.90
14016;DHT22;7083;48.854;9.158;2023-01-10T02:52:20;5.60;99.90
14016;DHT22;7083;48.854;9.158;2023-01-10T02:54:49;4.30;99.90
14016;DHT22;7083;48.854;9.158;2023-01-10T02:57:33;4.20;99.90
14016;DHT22;7083;48.854;9.158;2023-01-10T03:00:10;4.10;99.90
14016;DHT22;7083;48.854;9.158;2023-01-10T03:02:56;4.10;99.90
14016;DHT22;7083;48.854;9.158;2023-01-10T03:08:32;4.00;99.90
14016;DHT22;7083;48.854;9.158;2023-01-10T03:11:03;4.00;99.90
14016;DHT22;7083;48.854;9.158;2023-01-10T03:13:34;5.40;99.90
14016;DHT22;7083;48.854;9.158;2023-01-10T03:16:06;3.10;99.90
14016;DHT22;7083;48.854;9.158;2023-01-10T03:18:40;4.00;99.90
14016;DHT22;7083;48.854;9.158;2023-01-10T03:21:11;4.00;99.90
14016;DHT22;7083;48.854;9.158;2023-01-10T03:23:41;4.00;99.90
14016;DHT22;7083;48.854;9.158;2023-01-10T03:26:09;4.00;99.90
14016;DHT22;7083;48.854;9.158;2023-01-10T03:28:43;4.00;99.90
14016;DHT22;7083;48.854;9.158;2023-01-10T03:31:13;4.00;99.90
14016;DHT22;7083;48.854;9.158;2023-01-10T03:33:43;4.00;99.90
14016;DHT22;7083;48.854;9.158;2023-01-10T03:36:15;3.90;99.90
14016;DHT22;7083;48.854;9.158;2023-01-10T03:38:50;4.00;99.90
14016;DHT22;7083;48.854;9.158;2023-01-10T03:41:30;3.90;99.90
14016;DHT22;7083;48.854;9.158;2023-01-10T03:44:11;3.90;99.90
14016;DHT22;7083;48.854;9.158;2023-01-10T03:47:04;3.90;99.90
14016;DHT22;7083;48.854;9.158;2023-01-10T03:49:36;4.00;99.90
14016;DHT22;7083;48.854;9.158;2023-01-10T03:52:04;4.00;99.90
14016;DHT22;7083;48.854;9.158;2023-01-10T03:54:32;3.90;99.90
14016;DHT22;7083;48.854;9.158;2023-01-10T03:56:59;3.90;99.90
14016;DHT22;7083;48.854;9.158;2023-01-10T03:59:27;3.90;99.90
14016;DHT22;7083;48.854;9.158;2023-01-10T04:01:54;3.80;99.90
14016;DHT22;7083;48.854;9.158;2023-01-10T04:04:21;3.70;99.90
14016;DHT22;7083;48.854;9.158;2023-01-10T04:06:49;3.80;99.90
14016;DHT22;7083;48.854;9.158;2023-01-10T04:09:16;3.80;99.90
14016;DHT22;7083;48.854;9.158;2023-01-10T04:11:42;3.70;99.90
14016;DHT22;7083;48.854;9.158;2023-01-10T04:14:09;3.80;99.90
14016;DHT22;7083;48.854;9.158;2023-01-10T04:16:36;3.80;99.90
14016;DHT22;7083;48.854;9.158;2023-01-10T04:19:02;3.70;99.90
14016;DHT22;7083;48.854;9.158;2023-01-10T04:21:29;3.70;99.90
14016;DHT22;7083;48.854;9.158;2023-01-10T04:23:57;3.60;99.90
14016;DHT22;7083;48.854;9.158;2023-01-10T04:26:24;3.70;99.90
14016;DHT22;7083;48.854;9.158;2023-01-10T04:28:51;3.60;99.90
14016;DHT22;7083;48.854;9.158;2023-01-10T04:31:17;3.60;99.90
14016;DHT22;7083;48.854;9.158;2023-01-10T04:33:44;3.50;99.90
14016;DHT22;7083;48.854;9.158;2023-01-10T04:36:11;3.40;99.90
14016;DHT22;7083;48.854;9.158;2023-01-10T04:38:37;3.60;99.90
14016;DHT22;7083;48.854;9.158;2023-01-10T04:41:06;3.50;99.90
14016;DHT22;7083;48.854;9.158;2023-01-10T04:43:32;3.50;99.90
14016;DHT22;7083;48.854;9.158;2023-01-10T04:45:59;3.50;99.90
14016;DHT22;7083;48.854;9.158;2023-01-10T04:48:26;3.40;99.90
14016;DHT22;7083;48.854;9.158;2023-01-10T04:50:53;3.40;99.90
14016;DHT22;7083;48.854;9.158;2023-01-10T04:53:20;3.50;99.90
14016;DHT22;7083;48.854;9.158;2023-01-10T04:55:47;3.50;99.90
14016;DHT22;7083;48.854;9.158;2023-01-10T04:58:15;3.50;99.90
14016;DHT22;7083;48.854;9.158;2023-01-10T05:00:42;3.50;99.90
14016;DHT22;7083;48.854;9.158;2023-01-10T05:03:09;3.50;99.90
14016;DHT22;7083;48.854;9.158;2023-01-10T05:05:36;3.50;99.90
14016;DHT22;7083;48.854;9.158;2023-01-10T05:08:03;3.50;99.90
14016;DHT22;7083;48.854;9.158;2023-01-10T05:10:29;3.40;99.90
14016;DHT22;7083;48.854;9.158;2023-01-10T05:12:56;3.40;99.90
14016;DHT22;7083;48.854;9.158;2023-01-10T05:15:24;3.40;99.90
14016;DHT22;7083;48.854;9.158;2023-01-10T05:17:56;3.40;99.90
14016;DHT22;7083;48.854;9.158;2023-01-10T05:20:23;3.30;99.90
14016;DHT22;7083;48.854;9.158;2023-01-10T05:22:50;3.40;99.90
14016;DHT22;7083;48.854;9.158;2023-01-10T05:25:16;3.50;99.90
14016;DHT22;7083;48.854;9.158;2023-01-10T05:27:43;3.60;99.90
14016;DHT22;7083;48.854;9.158;2023-01-10T05:30:11;3.60;99.90
14016;DHT22;7083;48.854;9.158;2023-01-10T05:40:45;4.00;99.90
14016;DHT22;7083;48.854;9.158;2023-01-10T06:55:20;3.70;99.90
14016;DHT22;7083;48.854;9.158;2023-01-10T07:12:33;3.90;99.90
14016;DHT22;7083;48.854;9.158;2023-01-10T07:19:18;3.80;99.90
14016;DHT22;7083;48.854;9.158;2023-01-10T07:32:19;4.10;99.90
14016;DHT22;7083;48.854;9.158;2023-01-10T07:35:38;3.80;99.90
14016;DHT22;7083;48.854;9.158;2023-01-10T07:42:18;4.00;99.90
14016;DHT22;7083;48.854;9.158;2023-01-10T07:45:27;3.90;99.90
14016;DHT22;7083;48.854;9.158;2023-01-10T07:58:58;3.70;99.90
14016;DHT22;7083;48.854;9.158;2023-01-10T08:02:10;4.00;99.90
14016;DHT22;7083;48.854;9.158;2023-01-10T08:05:27;4.00;99.90
14016;DHT22;7083;48.854;9.158;2023-01-10T08:34:45;4.30;99.90
14016;DHT22;7083;48.854;9.158;2023-01-10T08:54:55;5.50;99.90
14016;DHT22;7083;48.854;9.158;2023-01-10T08:57:21;4.30;99.90
14016;DHT22;7083;48.854;9.158;2023-01-10T08:59:48;4.30;99.90
14016;DHT22;7083;48.854;9.158;2023-01-10T09:02:15;4.40;99.90
14016;DHT22;7083;48.854;9.158;2023-01-10T09:04:55;4.40;99.90
14016;DHT22;7083;48.854;9.158;2023-01-10T09:08:08;4.50;99.90
14016;DHT22;7083;48.854;9.158;2023-01-10T09:22:01;4.80;99.90
14016;DHT22;7083;48.854;9.158;2023-01-10T09:24:44;4.60;99.90
14016;DHT22;7083;48.854;9.158;2023-01-10T09:30:30;4.80;99.90
14016;DHT22;7083;48.854;9.158;2023-01-10T09:33:12;4.80;99.90
14016;DHT22;7083;48.854;9.158;2023-01-10T09:35:42;4.80;99.90
14016;DHT22;7083;48.854;9.158;2023-01-10T09:38:12;4.70;99.90
14016;DHT22;7083;48.854;9.158;2023-01-10T09:40:52;4.70;99.90
14016;DHT22;7083;48.854;9.158;2023-01-10T09:43:27;4.70;99.90
14016;DHT22;7083;48.854;9.158;2023-01-10T09:45:59;4.70;99.90
14016;DHT22;7083;48.854;9.158;2023-01-10T09:48:46;6.70;99.90
14016;DHT22;7083;48.854;9.158;2023-01-10T09:51:25;4.70;99.90
14016;DHT22;7083;48.854;9.158;2023-01-10T09:53:58;4.70;99.90
14016;DHT22;7083;48.854;9.158;2023-01-10T09:56:27;4.80;99.90
14016;DHT22;7083;48.854;9.158;2023-01-10T09:58:54;4.80;99.90
14016;DHT22;7083;48.854;9.158;2023-01-10T10:01:25;4.90;99.90
14016;DHT22;7083;48.854;9.158;2023-01-10T10:03:59;5.00;99.90
14016;DHT22;7083;48.854;9.158;2023-01-10T10:06:28;5.10;99.90
14016;DHT22;7083;48.854;9.158;2023-01-10T10:08:56;5.10;99.90
14016;DHT22;7083;48.854;9.158;2023-01-10T10:11:45;5.00;99.90
14016;DHT22;7083;48.854;9.158;2023-01-10T10:14:27;4.90;99.90
14016;DHT22;7083;48.854;9.158;2023-01-10T10:17:11;4.70;99.90
14016;DHT22;7083;48.854;9.158;2023-01-10T10:19:51;4.60;99.90
14016;DHT22;7083;48.854;9.158;2023-01-10T10:22:30;4.60;99.90
14016;DHT22;7083;48.854;9.158;2023-01-10T10:25:13;4.70;99.90
14016;DHT22;7083;48.854;9.158;2023-01-10T10:27:54;4.70;99.90
14016;DHT22;7083;48.854;9.158;2023-01-10T10:30:32;4.70;99.90
14016;DHT22;7083;48.854;9.158;2023-01-10T10:33:15;4.70;99.90
14016;DHT22;7083;48.854;9.158;2023-01-10T10:35:52;4.80;99.90
14016;DHT22;7083;48.854;9.158;2023-01-10T10:38:24;4.90;99.90
14016;DHT22;7083;48.854;9.158;2023-01-10T10:40:56;5.00;99.90
14016;DHT22;7083;48.854;9.158;2023-01-10T10:43:25;5.10;99.90
14016;DHT22;7083;48.854;9.158;2023-01-10T10:45:57;5.20;99.90
14016;DHT22;7083;48.854;9.158;2023-01-10T10:48:29;5.20;99.90
14016;DHT22;7083;48.854;9.158;2023-01-10T10:51:02;5.20;99.90
14016;DHT22;7083;48.854;9.158;2023-01-10T10:53:31;5.20;99.90
14016;DHT22;7083;48.854;9.158;2023-01-10T10:56:01;5.30;99.90
14016;DHT22;7083;48.854;9.158;2023-01-10T10:58:29;5.40;99.90
14016;DHT22;7083;48.854;9.158;2023-01-10T11:00:57;5.50;99.90
14016;DHT22;7083;48.854;9.158;2023-01-10T11:03:31;5.50;99.90
14016;DHT22;7083;48.854;9.158;2023-01-10T11:06:01;5.60;99.90
14016;DHT22;7083;48.854;9.158;2023-01-10T11:08:28;5.60;99.90
14016;DHT22;7083;48.854;9.158;2023-01-10T11:10:57;5.60;99.90
14016;DHT22;7083;48.854;9.158;2023-01-10T11:13:40;5.70;99.90
14016;DHT22;7083;48.854;9.158;2023-01-10T11:16:23;5.80;99.90
14016;DHT22;7083;48.854;9.158;2023-01-10T11:19:09;5.90;99.90
14016;DHT22;7083;48.854;9.158;2023-01-10T11:21:38;5.90;99.90
14016;DHT22;7083;48.854;9.158;2023-01-10T11:24:19;5.90;99.90
14016;DHT22;7083;48.854;9.158;2023-01-10T11:26:48;6.00;99.90
14016;DHT22;7083;48.854;9.158;2023-01-10T11:29:18;6.00;99.90
14016;DHT22;7083;48.854;9.158;2023-01-10T11:31:45;6.00;99.90
14016;DHT22;7083;48.854;9.158;2023-01-10T11:34:20;6.00;99.90
14016;DHT22;7083;48.854;9.158;2023-01-10T11:36:53;6.10;99.90
14016;DHT22;7083;48.854;9.158;2023-01-10T11:39:20;6.20;99.90
14016;DHT22;7083;48.854;9.158;2023-01-10T11:41:47;6.10;99.90
14016;DHT22;7083;48.854;9.158;2023-01-10T11:44:21;6.10;99.90
14016;DHT22;7083;48.854;9.158;2023-01-10T11:46:50;6.00;99.90
14016;DHT22;7083;48.854;9.158;2023-01-10T11:49:25;5.90;99.90
14016;DHT22;7083;48.854;9.158;2023-01-10T11:51:55;5.80;99.90
14016;DHT22;7083;48.854;9.158;2023-01-10T11:54:24;5.70;99.90
14016;DHT22;7083;48.854;9.158;2023-01-10T11:56:55;5.70;99.90
14016;DHT22;7083;48.854;9.158;2023-01-10T11:59:25;5.80;99.90
14016;DHT22;7083;48.854;9.158;2023-01-10T12:01:56;5.70;99.90
14016;DHT22;7083;48.854;9.158;2023-01-10T12:04:26;5.50;99.90
14016;DHT22;7083;48.854;9.158;2023-01-10T12:06:56;5.40;99.90
14016;DHT22;7083;48.854;9.158;2023-01-10T12:09:36;5.20;99.90
14016;DHT22;7083;48.854;9.158;2023-01-10T12:12:05;5.00;99.90
14016;DHT22;7083;48.854;9.158;2023-01-10T12:14:33;4.90;99.90
14016;DHT22;7083;48.854;9.158;2023-01-10T12:17:02;4.90;99.90
14016;DHT22;7083;48.854;9.158;2023-01-10T12:19:29;4.80;99.90
14016;DHT22;7083;48.854;9.158;2023-01-10T12:21:57;4.90;99.90
14016;DHT22;7083;48.854;9.158;2023-01-10T12:24:29;5.00;99.90
14016;DHT22;7083;48.854;9.158;2023-01-10T12:27:00;5.30;99.90
14016;DHT22;7083;48.854;9.158;2023-01-10T12:29:31;5.60;99.90
14016;DHT22;7083;48.854;9.158;2023-01-10T12:32:02;5.90;99.90
14016;DHT22;7083;48.854;9.158;2023-01-10T12:34:37;6.10;99.90
14016;DHT22;7083;48.854;9.158;2023-01-10T12:37:11;6.10;99.90
14016;DHT22;7083;48.854;9.158;2023-01-10T12:39:42;6.10;99.90
14016;DHT22;7083;48.854;9.158;2023-01-10T12:42:18;6.20;99.90
14016;DHT22;7083;48.854;9.158;2023-01-10T12:45:09;6.20;99.90
14016;DHT22;7083;48.854;9.158;2023-01-10T12:47:54;6.10;99.90
14016;DHT22;7083;48.854;9.158;2023-01-10T12:50:24;6.10;99.90
14016;DHT22;7083;48.854;9.158;2023-01-10T12:52:58;6.00;99.90
14016;DHT22;7083;48.854;9.158;2023-01-10T12:55:29;6.00;99.90
14016;DHT22;7083;48.854;9.158;2023-01-10T12:57:59;5.90;99.90
14016;DHT22;7083;48.854;9.158;2023-01-10T13:00:29;5.90;99.90
14016;DHT22;7083;48.854;9.158;2023-01-10T13:02:59;5.90;99.90
14016;DHT22;7083;48.854;9.158;2023-01-10T13:05:27;5.90;99.90
14016;DHT22;7083;48.854;9.158;2023-01-10T13:07:59;5.80;99.90
14016;DHT22;7083;48.854;9.158;2023-01-10T13:10:28;5.80;99.90
14016;DHT22;7083;48.854;9.158;2023-01-10T13:13:00;5.90;99.90
14016;DHT22;7083;48.854;9.158;2023-01-10T13:15:30;6.00;99.90
14016;DHT22;7083;48.854;9.158;2023-01-10T13:18:02;6.00;99.90
14016;DHT22;7083;48.854;9.158;2023-01-10T13:20:40;6.00;99.90
14016;DHT22;7083;48.854;9.158;2023-01-10T13:26:04;6.00;99.90
14016;DHT22;7083;48.854;9.158;2023-01-10T13:28:34;6.00;99.90
14016;DHT22;7083;48.854;9.158;2023-01-10T13:31:04;6.00;99.90
14016;DHT22;7083;48.854;9.158;2023-01-10T13:33:38;6.10;99.90
14016;DHT22;7083;48.854;9.158;2023-01-10T13:36:18;6.10;99.90
14016;DHT22;7083;48.854;9.158;2023-01-10T13:38:49;6.10;99.90
14016;DHT22;7083;48.854;9.158;2023-01-10T13:41:17;6.10;99.90
14016;DHT22;7083;48.854;9.158;2023-01-10T13:44:04;6.20;99.90
14016;DHT22;7083;48.854;9.158;2023-01-10T13:46:46;6.30;99.90
14016;DHT22;7083;48.854;9.158;2023-01-10T13:49:43;6.40;99.90
14016;DHT22;7083;48.854;9.158;2023-01-10T13:52:28;6.50;99.90
14016;DHT22;7083;48.854;9.158;2023-01-10T13:54:56;6.60;98.30
14016;DHT22;7083;48.854;9.158;2023-01-10T13:57:49;6.60;97.30
14016;DHT22;7083;48.854;9.158;2023-01-10T14:03:39;6.60;97.00
14016;DHT22;7083;48.854;9.158;2023-01-10T14:06:16;6.60;97.40
14016;DHT22;7083;48.854;9.158;2023-01-10T14:08:50;6.60;97.50
14016;DHT22;7083;48.854;9.158;2023-01-10T14:11:18;6.70;96.00
14016;DHT22;7083;48.854;9.158;2023-01-10T14:13:50;6.60;95.10
14016;DHT22;7083;48.854;9.158;2023-01-10T14:16:28;6.50;95.70
14016;DHT22;7083;48.854;9.158;2023-01-10T14:18:56;6.40;96.20
14016;DHT22;7083;48.854;9.158;2023-01-10T14:21:27;6.40;95.70
14016;DHT22;7083;48.854;9.158;2023-01-10T14:23:55;6.30;95.60
14016;DHT22;7083;48.854;9.158;2023-01-10T14:26:28;6.20;95.60
14016;DHT22;7083;48.854;9.158;2023-01-10T14:28:56;6.20;95.90
14016;DHT22;7083;48.854;9.158;2023-01-10T14:31:24;6.10;96.10
14016;DHT22;7083;48.854;9.158;2023-01-10T14:33:52;6.00;96.20
14016;DHT22;7083;48.854;9.158;2023-01-10T14:36:22;6.00;96.70
14016;DHT22;7083;48.854;9.158;2023-01-10T14:38:55;6.00;96.70
14016;DHT22;7083;48.854;9.158;2023-01-10T14:41:29;6.00;96.50
14016;DHT22;7083;48.854;9.158;2023-01-10T14:44:01;6.00;96.60
14016;DHT22;7083;48.854;9.158;2023-01-10T14:46:33;6.00;96.70
14016;DHT22;7083;48.854;9.158;2023-01-10T14:49:19;5.90;96.80
14016;DHT22;7083;48.854;9.158;2023-01-10T14:51:46;5.90;96.70
14016;DHT22;7083;48.854;9.158;2023-01-10T14:54:18;5.80;97.20
14016;DHT22;7083;48.854;9.158;2023-01-10T14:56:46;5.80;97.60
14016;DHT22;7083;48.854;9.158;2023-01-10T14:59:23;5.80;97.50
14016;DHT22;7083;48.854;9.158;2023-01-10T15:01:54;5.70;97.60
14016;DHT22;7083;48.854;9.158;2023-01-10T15:04:25;5.70;96.90
14016;DHT22;7083;48.854;9.158;2023-01-10T15:06:54;5.70;96.80
14016;DHT22;7083;48.854;9.158;2023-01-10T15:09:22;5.70;97.20
14016;DHT22;7083;48.854;9.158;2023-01-10T15:11:50;5.60;97.10
14016;DHT22;7083;48.854;9.158;2023-01-10T15:14:19;5.60;97.40
14016;DHT22;7083;48.854;9.158;2023-01-10T15:16:51;5.50;97.70
14016;DHT22;7083;48.854;9.158;2023-01-10T15:19:21;5.50;98.20
14016;DHT22;7083;48.854;9.158;2023-01-10T15:21:49;5.40;98.50
14016;DHT22;7083;48.854;9.158;2023-01-10T15:24:32;5.40;99.30
14016;DHT22;7083;48.854;9.158;2023-01-10T15:27:01;5.30;99.90
14016;DHT22;7083;48.854;9.158;2023-01-10T15:29:28;5.30;99.90
14016;DHT22;7083;48.854;9.158;2023-01-10T15:34:24;5.20;99.90
14016;DHT22;7083;48.854;9.158;2023-01-10T15:36:54;5.10;99.90
14016;DHT22;7083;48.854;9.158;2023-01-10T15:39:24;5.10;99.90
14016;DHT22;7083;48.854;9.158;2023-01-10T15:41:55;5.10;99.90
14016;DHT22;7083;48.854;9.158;2023-01-10T15:44:38;5.10;99.90
14016;DHT22;7083;48.854;9.158;2023-01-10T15:47:26;5.00;99.90
14016;DHT22;7083;48.854;9.158;2023-01-10T15:49:52;5.00;99.90
14016;DHT22;7083;48.854;9.158;2023-01-10T15:52:20;5.00;99.90
14016;DHT22;7083;48.854;9.158;2023-01-10T15:54:49;4.90;99.90
14016;DHT22;7083;48.854;9.158;2023-01-10T15:57:23;4.80;99.90
14016;DHT22;7083;48.854;9.158;2023-01-10T15:59:50;4.80;99.90
14016;DHT22;7083;48.854;9.158;2023-01-10T16:02:22;4.80;99.90
14016;DHT22;7083;48.854;9.158;2023-01-10T16:04:52;4.80;99.90
14016;DHT22;7083;48.854;9.158;2023-01-10T16:07:21;4.80;99.90
14016;DHT22;7083;48.854;9.158;2023-01-10T16:09:55;4.80;99.90
14016;DHT22;7083;48.854;9.158;2023-01-10T16:12:25;4.70;99.90
14016;DHT22;7083;48.854;9.158;2023-01-10T16:15:20;4.60;99.90
14016;DHT22;7083;48.854;9.158;2023-01-10T16:17:51;4.40;99.90
14016;DHT22;7083;48.854;9.158;2023-01-10T16:20:19;4.40;99.90
14016;DHT22;7083;48.854;9.158;2023-01-10T16:22:47;4.30;99.90
14016;DHT22;7083;48.854;9.158;2023-01-10T16:25:17;4.30;99.90
14016;DHT22;7083;48.854;9.158;2023-01-10T16:27:45;4.20;99.90
14016;DHT22;7083;48.854;9.158;2023-01-10T16:30:30;4.10;99.90
14016;DHT22;7083;48.854;9.158;2023-01-10T16:32:58;4.10;99.90
14016;DHT22;7083;48.854;9.158;2023-01-10T16:35:26;4.10;99.90
14016;DHT22;7083;48.854;9.158;2023-01-10T16:37:54;4.10;99.90
14016;DHT22;7083;48.854;9.158;2023-01-10T16:40:24;4.10;99.90
14016;DHT22;7083;48.854;9.158;2023-01-10T16:42:52;4.10;99.90
14016;DHT22;7083;48.854;9.158;2023-01-10T16:45:36;4.10;99.90
14016;DHT22;7083;48.854;9.158;2023-01-10T16:48:03;4.10;99.90
14016;DHT22;7083;48.854;9.158;2023-01-10T16:50:30;4.10;99.90
14016;DHT22;7083;48.854;9.158;2023-01-10T16:52:57;4.20;99.90
14016;DHT22;7083;48.854;9.158;2023-01-10T16:55:32;4.20;99.90
14016;DHT22;7083;48.854;9.158;2023-01-10T16:58:02;4.30;99.90
14016;DHT22;7083;48.854;9.158;2023-01-10T17:00:29;4.30;99.90
14016;DHT22;7083;48.854;9.158;2023-01-10T17:02:56;4.40;99.90
14016;DHT22;7083;48.854;9.158;2023-01-10T17:05:23;4.40;99.90
14016;DHT22;7083;48.854;9.158;2023-01-10T17:07:50;4.40;99.90
14016;DHT22;7083;48.854;9.158;2023-01-10T17:10:17;4.40;99.90
14016;DHT22;7083;48.854;9.158;2023-01-10T17:12:45;4.40;99.90
14016;DHT22;7083;48.854;9.158;2023-01-10T17:15:13;4.50;99.90
14016;DHT22;7083;48.854;9.158;2023-01-10T17:17:40;4.50;99.90
14016;DHT22;7083;48.854;9.158;2023-01-10T17:20:11;4.50;99.90
14016;DHT22;7083;48.854;9.158;2023-01-10T17:22:38;4.50;99.90
14016;DHT22;7083;48.854;9.158;2023-01-10T17:25:06;4.50;99.90
14016;DHT22;7083;48.854;9.158;2023-01-10T17:27:33;4.50;99.90
14016;DHT22;7083;48.854;9.158;2023-01-10T17:30:01;4.50;99.90
14016;DHT22;7083;48.854;9.158;2023-01-10T17:32:28;4.60;99.90
14016;DHT22;7083;48.854;9.158;2023-01-10T17:34:55;4.50;99.90
14016;DHT22;7083;48.854;9.158;2023-01-10T17:37:21;4.60;99.90
14016;DHT22;7083;48.854;9.158;2023-01-10T17:39:48;4.60;99.90
14016;DHT22;7083;48.854;9.158;2023-01-10T17:42:15;4.60;99.90
14016;DHT22;7083;48.854;9.158;2023-01-10T17:44:42;4.70;99.90
14016;DHT22;7083;48.854;9.158;2023-01-10T17:47:10;4.70;99.90
14016;DHT22;7083;48.854;9.158;2023-01-10T17:49:36;4.70;99.90
14016;DHT22;7083;48.854;9.158;2023-01-10T17:52:03;4.70;99.90
14016;DHT22;7083;48.854;9.158;2023-01-10T17:54:30;4.70;99.90
14016;DHT22;7083;48.854;9.158;2023-01-10T17:56:57;4.80;99.90
14016;DHT22;7083;48.854;9.158;2023-01-10T17:59:23;4.70;99.90
14016;DHT22;7083;48.854;9.158;2023-01-10T18:01:50;5.80;99.90
14016;DHT22;7083;48.854;9.158;2023-01-10T18:04:18;4.80;99.90
14016;DHT22;7083;48.854;9.158;2023-01-10T18:06:45;4.80;99.90
14016;DHT22;7083;48.854;9.158;2023-01-10T18:09:12;4.80;99.90
14016;DHT22;7083;48.854;9.158;2023-01-10T18:11:39;4.80;99.90
14016;DHT22;7083;48.854;9.158;2023-01-10T18:14:06;4.80;99.90
14016;DHT22;7083;48.854;9.158;2023-01-10T18:16:46;4.90;99.90
14016;DHT22;7083;48.854;9.158;2023-01-10T18:19:13;4.90;99.90
14016;DHT22;7083;48.854;9.158;2023-01-10T18:21:41;4.90;99.90
14016;DHT22;7083;48.854;9.158;2023-01-10T18:24:08;4.90;99.90
14016;DHT22;7083;48.854;9.158;2023-01-10T18:26:34;5.00;99.90
14016;DHT22;7083;48.854;9.158;2023-01-10T18:29:01;5.00;99.90
14016;DHT22;7083;48.854;9.158;2023-01-10T18:31:28;5.00;99.90
14016;DHT22;7083;48.854;9.158;2023-01-10T18:33:54;5.00;99.90
14016;DHT22;7083;48.854;9.158;2023-01-10T18:36:22;5.00;99.90
14016;DHT22;7083;48.854;9.158;2023-01-10T18:38:51;5.10;99.90
14016;DHT22;7083;48.854;9.158;2023-01-10T18:41:19;5.50;99.90
14016;DHT22;7083;48.854;9.158;2023-01-10T18:43:46;6.60;99.90
14016;DHT22;7083;48.854;9.158;2023-01-10T18:46:14;5.10;99.90
14016;DHT22;7083;48.854;9.158;2023-01-10T18:48:42;5.00;99.90
14016;DHT22;7083;48.854;9.158;2023-01-10T18:51:10;5.00;99.90
14016;DHT22;7083;48.854;9.158;2023-01-10T18:53:38;5.00;99.90
14016;DHT22;7083;48.854;9.158;2023-01-10T18:56:07;5.00;99.90
14016;DHT22;7083;48.854;9.158;2023-01-10T18:58:36;5.00;99.90
14016;DHT22;7083;48.854;9.158;2023-01-10T19:01:06;4.90;99.90
14016;DHT22;7083;48.854;9.158;2023-01-10T19:03:33;5.10;99.90
14016;DHT22;7083;48.854;9.158;2023-01-10T19:06:00;5.00;99.90
14016;DHT22;7083;48.854;9.158;2023-01-10T19:08:27;5.10;99.90
14016;DHT22;7083;48.854;9.158;2023-01-10T19:10:54;5.10;99.90
14016;DHT22;7083;48.854;9.158;2023-01-10T19:13:22;5.10;99.90
14016;DHT22;7083;48.854;9.158;2023-01-10T19:15:49;5.10;99.90
14016;DHT22;7083;48.854;9.158;2023-01-10T19:18:17;5.10;99.90
14016;DHT22;7083;48.854;9.158;2023-01-10T19:20:43;5.10;99.90
14016;DHT22;7083;48.854;9.158;2023-01-10T19:23:16;5.10;99.90
14016;DHT22;7083;48.854;9.158;2023-01-10T19:25:42;5.20;99.90
14016;DHT22;7083;48.854;9.158;2023-01-10T19:28:09;5.10;99.90
14016;DHT22;7083;48.854;9.158;2023-01-10T19:30:37;5.20;99.80
14016;DHT22;7083;48.854;9.158;2023-01-10T19:33:04;5.20;99.90
14016;DHT22;7083;48.854;9.158;2023-01-10T19:35:31;5.20;99.90
14016;DHT22;7083;48.854;9.158;2023-01-10T19:38:00;5.40;99.90
14016;DHT22;7083;48.854;9.158;2023-01-10T19:40:28;5.20;99.90
14016;DHT22;7083;48.854;9.158;2023-01-10T19:42:55;5.20;99.90
14016;DHT22;7083;48.854;9.158;2023-01-10T19:45:21;5.30;99.90
14016;DHT22;7083;48.854;9.158;2023-01-10T19:47:49;5.30;99.70